Rose City, MI

11:37 PM EST on November 22, 2014 (GMT -0500)
Otsego County | Change Station
CLOSE
Current Station
Airport
Location: Gaylord,
Elevation: 1325 ft
Nearby Weather Stations

Elev 1325 ft 45.01 °N, 84.70 °W | Updated 8 minutes ago

Fog
Fog
37 °F
Feels Like 29 °F
N
13
Wind Variable Wind from SW

Today
High -- | Low -- °F
--% Chance of Precip.
Yesterday
High -- | Low -- °F
Precip. -- in
7:41 AM 5:03 PM
New Moon, 1% visible
Pressure 29.80 in
Visibility 0.8 miles
Clouds
Windchill 29 °F
Dew Point 37 °F
Humidity 100%
Rainfall 0.00 in
Snow Depth Not available.
UV Not available.
Pollen .10 out of 12
Air Quality Not available.
Flu Activity Not available.
SPECI KGLR 230429Z AUTO 23011KT 3/4SM BR VV002 03/03 A2980 RMK AO2 T00280028

More Conditions Fewer Conditions

Pressure 29.80 in
Visibility 0.8 miles
Clouds
Windchill 29 °F
Dew Point 37 °F
Humidity 100%
Rainfall 0.00 in
Snow Depth Not available.
UV Not available.
Pollen .10 out of 12
Air Quality Not available.
Flu Activity Not available.
SPECI KGLR 230429Z AUTO 23011KT 3/4SM BR VV002 03/03 A2980 RMK AO2 T00280028

More Conditions Fewer Conditions

Nowcast | as of 11:00 PM EST on November 22, 2014

At 12 am...cloudy. Areas of dense fog. Occasional drizzle. Temperature 38. Southwest winds 5 mph. At 2 am...cloudy. Areas of dense fog. Chance of rain. Temperature 39. Southwest winds 5 mph. At 4 am...cloudy. Areas of dense fog. Chance of rain. Temperature 40. South winds 5 mph. At 6 am...cloudy. Areas of dense fog. Chance of rain. Temperature 40. South winds 6 mph.

×

10-Day Weather Forecast

Almanac

Astronomy

Nov. 22, 2014 Rise Set
Actual Time
Civil Twilight
Nautical Twilight
Astronomical Twilight
Moon
Length of Visible Light
Length of Day
Tomorrow will be .
, % of the Moon is Illuminated

Today's Extremes

State Highs State Lows

Community

WunderPhotos

Upload Photos

1,773,002 photos uploaded!

WunderBlogs® & News

Nearby

Air Quality

  Air Quality AQ Index Pollutant
Not available.

Snow Depth

Station Depth Elevation

Earthquake Activity

City Distance Mag. Time & Date
Minimum magnitude displayed is 2.5.

Coastal Water Temperatures

Place Temperature

Nearby Weather Stations